• Join FlightAware (Why Join?)
  • Login
  • US Flag 
05:59PM EDT


 

Airport Tracker/Info


-or-


 

Live Flight TrackerFlight Track Log ✈ N8887B ✈ 23-Feb-2014 ✈ KDPA - KDVL

Flight Track Log - Related Links

Times and Time Zones

All times are in EST time to prevent confusion due to time zone crossing. See the N8887B flight status page for this flight to view local times or setup timezone preferences in your user account.

Time Position Orientation Groundspeed Altitude Reporting Facility
EST Latitude Longitude Course Direction KTS MPH feet Rate Location/Type
12:33PM 41.9167 -88.2833 279° West 118 136 2,900  Level Chicago TRACON
12:34PM 41.9167 -88.3333 270° West 142 163 4,000 840 Climbing Chicago TRACON
12:35PM 41.9044 -88.3769 249° West 174 200 4,400 1,200 Climbing Chicago Center
12:36PM 41.8969 -88.4317 260° West 154 177 6,200 1,680 Climbing Chicago Center
12:37PM 41.8939 -88.4839 266° West 133 153 7,900 1,680 Climbing Chicago Center
12:38PM 41.9405 -88.5974 279° West  Level FlightAware Approximate
12:38PM 41.8931 -88.5331 269° West 130 150 9,700  Level Chicago Center
12:39PM 41.8936 -88.5792 271° West 118 136 11,400 1,500 Climbing Chicago Center
12:40PM 41.8917 -88.6219 267° West 118 136 12,800 1,260 Climbing Chicago Center
12:41PM 41.8922 -88.6644 271° West 116 133 14,100 1,380 Climbing Chicago Center
12:42PM 41.8933 -88.7083 272° West 111 128 15,700 900 Climbing Chicago Center
12:43PM 41.8958 -88.7567 274° West 132 152 16,000 120 Climbing Chicago Center
12:44PM 41.8975 -88.8233 272° West 165 190 16,000  Level Chicago Center
12:45PM 41.9167 -88.8744 297° West 192 221 16,000  Level Chicago Center
12:46PM 41.9625 -88.9150 327° Northwest 196 226 16,000  Level Chicago Center
12:47PM 41.9936 -88.9681 308° West 184 212 16,000  Level Chicago Center
12:48PM 42.0350 -89.0300 312° West 185 213 16,000  Level Chicago Center
12:49PM 42.0689 -89.0772 314° West 188 216 16,000  Level Chicago Center
12:50PM 42.1025 -89.1267 313° West 183 211 16,000  Level Chicago Center
12:51PM 42.1383 -89.1783 313° West 186 214 16,000  Level Chicago Center
12:52PM 42.1764 -89.2281 316° Northwest 189 217 16,000  Level Chicago Center
12:53PM 42.2192 -89.2886 314° West 187 215 16,000  Level Chicago Center
12:54PM 42.2525 -89.3364 313° West 180 207 16,000  Level Chicago Center
12:55PM 42.2872 -89.3844 314° West 180 207 16,000  Level Chicago Center
12:56PM 42.3231 -89.4336 315° West 184 212 16,000  Level Chicago Center
12:57PM 42.3586 -89.4814 315° West 181 208 16,000  Level Chicago Center
12:58PM 42.3936 -89.5314 313° West 182 209 16,000  Level Chicago Center
12:59PM 42.4361 -89.5919 314° West 186 214 16,000  Level Chicago Center
01:00PM 42.4722 -89.6422 314° West 186 214 16,000  Level Chicago Center
01:01PM 42.5072 -89.6919 314° West 184 212 16,000  Level Chicago Center
01:03PM 42.5444 -89.7428 315° West 189 217 16,000  Level Chicago Center
01:04PM 42.5769 -89.7897 313° West 176 203 16,000  Level Chicago Center
01:05PM 42.6125 -89.8403 314° West 183 211 16,000  Level Chicago Center
01:06PM 42.6547 -89.8967 316° Northwest 180 207 16,000  Level Chicago Center
01:07PM 42.6842 -89.9403 313° West 182 209 16,000  Level Chicago Center
01:08PM 42.7286 -90.0003 315° West 188 216 16,000  Level Chicago Center
01:09PM 42.7631 -90.0497 314° West 182 209 16,000  Level Chicago Center
01:10PM 42.7967 -90.0986 313° West 181 208 16,000  Level Chicago Center
01:11PM 42.8314 -90.1478 314° West 180 207 16,000  Level Chicago Center
01:12PM 42.8664 -90.1958 315° West 179 206 16,000  Level Chicago Center
01:13PM 42.9003 -90.2453 313° West 179 206 16,000  Level Chicago Center
01:14PM 42.9389 -90.3044 312° West 177 204 16,000  Level Chicago Center
01:15PM 42.9722 -90.3550 312° West 181 208 16,000  Level Chicago Center
01:16PM 43.0078 -90.4044 315° West 182 209 16,000  Level Chicago Center
01:17PM 43.0431 -90.4547 314° West 184 212 16,000  Level Chicago Center
01:18PM 43.0783 -90.5053 314° West 184 212 16,000  Level Chicago Center
01:19PM 43.1214 -90.5675 313° West 187 215 16,000  Level Chicago Center
01:20PM 43.1536 -90.6136 314° West 179 206 16,000  Level Chicago Center
01:21PM 43.1889 -90.6658 313° West 187 215 16,000  Level Chicago Center
01:22PM 43.2272 -90.7183 315° West 194 223 16,000  Level Chicago Center
01:23PM 43.2617 -90.7683 313° West 188 216 16,000  Level Chicago Center
01:24PM 43.2964 -90.8192 313° West 186 214 16,000  Level Chicago Center
01:25PM 43.3392 -90.8814 313° West 187 215 16,000  Level Chicago Center
01:26PM 43.3742 -90.9347 312° West 189 217 16,000  Level Chicago Center
01:27PM 43.4100 -90.9889 312° West 192 221 16,000  Level Chicago Center
01:28PM 43.4483 -91.0422 315° West 195 224 16,000  Level Chicago Center
01:29PM 43.4861 -91.0983 313° West 199 229 16,000  Level Chicago Center
01:30PM 43.5319 -91.1639 314° West 200 230 16,000  Level Chicago Center
01:31PM 43.5689 -91.2214 312° West 201 231 16,000  Level Chicago Center
01:32PM 43.6069 -91.2756 314° West 201 231 16,000  Level Chicago Center
01:34PM 43.6517 -91.3408 313° West 197 227 16,000  Level Minneapolis Center
01:35PM 43.6892 -91.3975 312° West 197 227 16,000  Level Minneapolis Center
01:36PM 43.7256 -91.4544 311° West 198 228 16,000  Level Minneapolis Center
01:37PM 43.7633 -91.5092 314° West 198 228 16,000  Level Minneapolis Center
01:38PM 43.8003 -91.5642 313° West 198 228 16,000  Level Minneapolis Center
01:39PM 43.8444 -91.6306 313° West 197 227 16,000  Level Minneapolis Center
01:40PM 43.8822 -91.6864 313° West 197 227 16,000  Level Minneapolis Center
01:41PM 43.9197 -91.7408 314° West 196 226 16,000  Level Minneapolis Center
01:42PM 43.9558 -91.7975 312° West 196 226 16,000  Level Minneapolis Center
01:43PM 43.9936 -91.8517 314° West 196 226 16,000  Level Minneapolis Center
01:44PM 44.0292 -91.9089 311° West 196 226 16,000  Level Minneapolis Center
01:45PM 44.0669 -91.9633 314° West 196 226 16,000  Level Minneapolis Center
01:46PM 44.1094 -92.0328 310° West 196 226 16,000  Level Minneapolis Center
01:47PM 44.1469 -92.0867 314° West 195 224 16,000  Level Minneapolis Center
01:48PM 44.1819 -92.1453 310° West 196 226 16,000  Level Minneapolis Center
01:49PM 44.2197 -92.2000 314° West 196 226 16,000  Level Minneapolis Center
01:50PM 44.2564 -92.2572 312° West 196 226 16,000  Level Minneapolis Center
01:51PM 44.2931 -92.3122 313° West 196 226 16,000  Level Minneapolis Center
01:52PM 44.3364 -92.3808 311° West 196 226 16,000  Level Minneapolis Center
01:53PM 44.3742 -92.4353 314° West 196 226 16,000  Level Minneapolis Center
01:54PM 44.4117 -92.4931 312° West 198 228 16,000  Level Minneapolis Center
01:55PM 44.4483 -92.5489 313° West 198 228 16,000  Level Minneapolis Center
01:56PM 44.4850 -92.6081 311° West 201 231 16,000  Level Minneapolis Center
01:57PM 44.5214 -92.6639 312° West 199 229 16,000  Level Minneapolis Center
01:58PM 44.5653 -92.7319 312° West 198 228 16,000  Level Minneapolis Center
01:59PM 44.6028 -92.7894 313° West 200 230 16,000  Level Minneapolis Center
02:00PM 44.6378 -92.8444 312° West 190 219 16,000  Level Minneapolis Center
02:01PM 44.6742 -92.9011 312° West 192 221 16,000  Level Minneapolis Center
02:02PM 44.7106 -92.9578 312° West 193 222 16,000  Level Minneapolis Center
02:03PM 44.7464 -93.0147 312° West 194 223 16,000  Level Minneapolis Center
02:05PM 44.7889 -93.0811 312° West 194 223 16,000  Level Minneapolis Center
02:06PM 44.8247 -93.1367 312° West 194 223 16,000  Level Minneapolis Center
02:07PM 44.8608 -93.1936 312° West 196 226 16,000  Level Minneapolis Center
02:08PM 44.8939 -93.2500 310° West 194 223 16,000  Level Minneapolis Center
02:09PM 44.9306 -93.3050 313° West 193 222 16,000  Level Minneapolis Center
02:10PM 44.9733 -93.3739 311° West 195 224 16,000  Level Minneapolis Center
02:11PM 45.0100 -93.4319 312° West 195 224 16,000  Level Minneapolis Center
02:12PM 45.0453 -93.4881 312° West 195 224 16,000  Level Minneapolis Center
02:13PM 45.0814 -93.5461 311° West 195 224 16,000  Level Minneapolis Center
02:14PM 45.1178 -93.6028 312° West 195 224 16,000  Level Minneapolis Center
02:15PM 45.1531 -93.6606 311° West 195 224 16,000  Level Minneapolis Center
02:16PM 45.1956 -93.7308 311° West 195 224 16,000  Level Minneapolis Center
02:17PM 45.2306 -93.7883 311° West 195 224 16,000  Level Minneapolis Center
02:18PM 45.2667 -93.8458 312° West 195 224 16,000  Level Minneapolis Center
02:19PM 45.3031 -93.9033 312° West 195 224 16,000  Level Minneapolis Center
02:20PM 45.3383 -93.9617 311° West 195 224 16,000  Level Minneapolis Center
02:21PM 45.3744 -94.0219 310° West 200 230 16,000  Level Minneapolis Center
02:22PM 45.4175 -94.0919 311° West 199 229 16,000  Level Minneapolis Center
02:23PM 45.4542 -94.1519 311° West 201 231 16,000  Level Minneapolis Center
02:24PM 45.4911 -94.2119 311° West 202 232 16,000  Level Minneapolis Center
02:25PM 45.5278 -94.2711 312° West 201 231 16,000  Level Minneapolis Center
02:26PM 45.5633 -94.3325 310° West 202 232 16,000  Level Minneapolis Center
02:27PM 45.5992 -94.3936 310° West 202 232 16,000  Level Minneapolis Center
02:28PM 45.6372 -94.4533 312° West 202 232 16,000  Level Minneapolis Center
02:29PM 45.6811 -94.5256 311° West 202 232 16,000  Level Minneapolis Center
02:30PM 45.7169 -94.5881 309° West 202 232 16,000  Level Minneapolis Center
02:31PM 45.7542 -94.6503 311° West 202 232 16,000  Level Minneapolis Center
02:32PM 45.7908 -94.7119 310° West 203 234 16,000  Level Minneapolis Center
02:33PM 45.8275 -94.7742 310° West 203 234 16,000  Level Minneapolis Center
02:34PM 45.8639 -94.8353 311° West 203 234 16,000  Level Minneapolis Center
02:35PM 45.9011 -94.8992 310° West 204 235 16,000  Level Minneapolis Center
02:36PM 45.9464 -94.9731 311° West 204 235 16,000  Level Minneapolis Center
02:37PM 45.9828 -95.0367 309° West 205 236 16,000  Level Minneapolis Center
02:39PM 46.0225 -95.1025 311° West 205 236 16,000  Level Minneapolis Center
02:40PM 46.0603 -95.1664 310° West 207 238 16,000  Level Minneapolis Center
02:41PM 46.0975 -95.2308 310° West 208 239 16,000  Level Minneapolis Center
02:42PM 46.1344 -95.2931 311° West 208 239 16,000  Level Minneapolis Center
02:43PM 46.1722 -95.3578 310° West 209 241 16,000  Level Minneapolis Center
02:44PM 46.2108 -95.4244 310° West 209 241 16,000  Level Minneapolis Center
02:45PM 46.2542 -95.4997 310° West 209 241 16,000  Level Minneapolis Center
02:46PM 46.2917 -95.5642 310° West 209 241 16,000  Level Minneapolis Center
02:47PM 46.3281 -95.6275 310° West 209 241 16,000  Level Minneapolis Center
02:48PM 46.3661 -95.6911 311° West 209 241 16,000  Level Minneapolis Center
02:49PM 46.4028 -95.7553 310° West 209 241 16,000  Level Minneapolis Center
02:50PM 46.4403 -95.8206 310° West 209 241 16,000  Level Minneapolis Center
02:51PM 46.4853 -95.8994 310° West 209 241 16,000  Level Minneapolis Center
02:52PM 46.5211 -95.9628 309° West 210 242 16,000  Level Minneapolis Center
02:53PM 46.5603 -96.0300 310° West 209 241 16,000  Level Minneapolis Center
02:54PM 46.5986 -96.0989 309° West 209 241 16,000  Level Minneapolis Center
02:55PM 46.6375 -96.1664 310° West 209 241 16,000  Level Minneapolis Center
02:56PM 46.6764 -96.2350 310° West 209 241 16,000  Level Minneapolis Center
02:57PM 46.7147 -96.3036 309° West 210 242 16,000  Level Minneapolis Center
02:58PM 46.7506 -96.3669 310° West 210 242 16,000  Level Minneapolis Center
02:59PM 46.7892 -96.4356 309° West 210 242 16,000  Level Minneapolis Center
03:00PM 46.8275 -96.5047 309° West 210 242 16,000  Level Minneapolis Center
03:01PM 46.8664 -96.5739 309° West 210 242 16,000  Level Minneapolis Center
03:02PM 46.9042 -96.6436 308° West 210 242 16,000  Level Minneapolis Center
03:03PM 46.9397 -96.7067 310° West 210 242 16,000  Level Minneapolis Center
03:04PM 46.9767 -96.7756 308° West 208 239 16,000  Level Minneapolis Center
03:05PM 47.0158 -96.8436 310° West 208 239 16,000  Level Minneapolis Center
03:06PM 47.0556 -96.9139 310° West 210 242 16,000  Level Minneapolis Center
03:07PM 47.0942 -96.9853 308° West 216 249 16,000  Level Minneapolis Center
03:08PM 47.1333 -97.0550 310° West 214 246 16,000  Level Minneapolis Center
03:09PM 47.1692 -97.1211 309° West 214 246 16,000  Level Minneapolis Center
03:10PM 47.2083 -97.1917 309° West 214 246 16,000  Level Minneapolis Center
03:11PM 47.2467 -97.2639 308° West 214 246 16,000  Level Minneapolis Center
03:12PM 47.2853 -97.3353 309° West 214 246 16,000  Level Minneapolis Center
03:14PM 47.3211 -97.4003 309° West 214 246 16,000  Level Minneapolis Center
03:15PM 47.3592 -97.4706 309° West 214 246 16,000  Level Minneapolis Center
03:16PM 47.3975 -97.5414 309° West 213 245 16,000  Level Minneapolis Center
03:17PM 47.4356 -97.6117 309° West 212 244 16,000  Level Minneapolis Center
03:18PM 47.4661 -97.6689 308° West 211 243 16,000  Level Minneapolis Center
03:19PM 47.5103 -97.7553 307° West 218 251 16,000  Level Minneapolis Center
03:20PM 47.5439 -97.8219 307° West 214 246 16,000  Level Minneapolis Center
03:21PM 47.5764 -97.8853 307° West 207 238 16,000  Level Minneapolis Center
03:22PM 47.6106 -97.9458 310° West 201 231 16,000  Level Minneapolis Center
03:23PM 47.6475 -98.0139 309° West 204 235 16,000  Level Minneapolis Center
03:24PM 47.6919 -98.0950 309° West 208 239 16,000 -300 Level Minneapolis Center
03:25PM 47.7278 -98.1633 308° West 208 239 15,500 -840 Descending Minneapolis Center
03:26PM 47.7658 -98.2372 307° West 214 246 14,400 -1,200 Descending Minneapolis Center
03:27PM 47.8061 -98.3114 309° West 223 257 13,100 -1,320 Descending Minneapolis Center
03:28PM 47.8433 -98.3839 307° West 224 258 11,800 -1,380 Descending Minneapolis Center
03:29PM 47.8761 -98.4625 302° West 224 258 10,300 -1,500 Descending Minneapolis Center
03:31PM 47.9332 -98.5607 309° West  Level FlightAware Approximate
03:38PM 48.1000 -98.9000 270° West  Level FlightAware Approximate
03:39PM 48.1166 -98.9100 270° West  Level Estimated
03:40PM 48.1166 -98.9100 270° West  Level Estimated
03:41PM 48.1166 -98.9100 270° West  Level Estimated
03:42PM 48.1166 -98.9100 270° West  Level Estimated